sensor_id;sensor_type;location;lat;lon;timestamp;pressure;altitude;pressure_sealevel;temperature;humidity
48156;BME280;35568;48.104;11.782;2023-05-07T00:01:29;95353.39;;;13.38;51.95
48156;BME280;35568;48.104;11.782;2023-05-07T00:03:55;95355.11;;;13.11;52.10
48156;BME280;35568;48.104;11.782;2023-05-07T00:06:22;95355.78;;;13.14;51.97
48156;BME280;35568;48.104;11.782;2023-05-07T00:08:49;95355.84;;;13.36;51.98
48156;BME280;35568;48.104;11.782;2023-05-07T00:11:16;95353.53;;;12.83;52.17
48156;BME280;35568;48.104;11.782;2023-05-07T00:13:43;95353.95;;;12.80;52.30
48156;BME280;35568;48.104;11.782;2023-05-07T00:16:10;95353.18;;;13.17;52.30
48156;BME280;35568;48.104;11.782;2023-05-07T00:18:36;95352.24;;;13.33;51.84
48156;BME280;35568;48.104;11.782;2023-05-07T00:21:03;95353.95;;;13.65;51.78
48156;BME280;35568;48.104;11.782;2023-05-07T00:23:31;95351.71;;;13.48;51.78
48156;BME280;35568;48.104;11.782;2023-05-07T00:25:58;95351.24;;;13.48;51.78
48156;BME280;35568;48.104;11.782;2023-05-07T00:28:25;95348.56;;;13.68;51.60
48156;BME280;35568;48.104;11.782;2023-05-07T00:30:52;95347.59;;;13.46;51.52
48156;BME280;35568;48.104;11.782;2023-05-07T00:33:19;95344.74;;;13.06;51.85
48156;BME280;35568;48.104;11.782;2023-05-07T00:35:46;95343.32;;;13.43;51.75
48156;BME280;35568;48.104;11.782;2023-05-07T00:38:13;95342.93;;;13.27;51.44
48156;BME280;35568;48.104;11.782;2023-05-07T00:40:40;95341.99;;;13.49;51.31
48156;BME280;35568;48.104;11.782;2023-05-07T00:43:07;95338.25;;;13.26;51.39
48156;BME280;35568;48.104;11.782;2023-05-07T00:45:34;95334.64;;;13.26;51.45
48156;BME280;35568;48.104;11.782;2023-05-07T00:48:01;95334.20;;;13.37;51.34
48156;BME280;35568;48.104;11.782;2023-05-07T00:50:29;95336.09;;;13.13;51.78
48156;BME280;35568;48.104;11.782;2023-05-07T00:52:57;95335.52;;;13.26;51.92
48156;BME280;35568;48.104;11.782;2023-05-07T00:55:25;95339.80;;;12.97;51.86
48156;BME280;35568;48.104;11.782;2023-05-07T00:57:52;95339.62;;;13.06;52.17
48156;BME280;35568;48.104;11.782;2023-05-07T01:00:19;95340.52;;;12.68;52.58
48156;BME280;35568;48.104;11.782;2023-05-07T01:02:45;95338.43;;;12.90;52.49
48156;BME280;35568;48.104;11.782;2023-05-07T01:05:14;95337.16;;;12.88;52.56
48156;BME280;35568;48.104;11.782;2023-05-07T01:07:42;95338.08;;;12.59;52.67
48156;BME280;35568;48.104;11.782;2023-05-07T01:10:11;95340.15;;;12.57;52.58
48156;BME280;35568;48.104;11.782;2023-05-07T01:12:39;95343.13;;;12.84;52.41
48156;BME280;35568;48.104;11.782;2023-05-07T01:15:08;95345.87;;;12.76;52.61
48156;BME280;35568;48.104;11.782;2023-05-07T01:17:36;95344.88;;;12.72;53.07
48156;BME280;35568;48.104;11.782;2023-05-07T01:20:05;95344.15;;;12.91;52.83
48156;BME280;35568;48.104;11.782;2023-05-07T01:22:32;95347.12;;;12.84;52.51
48156;BME280;35568;48.104;11.782;2023-05-07T01:25:00;95345.12;;;12.96;52.44
48156;BME280;35568;48.104;11.782;2023-05-07T01:27:27;95345.02;;;13.29;52.07
48156;BME280;35568;48.104;11.782;2023-05-07T01:29:54;95343.11;;;13.02;52.66
48156;BME280;35568;48.104;11.782;2023-05-07T01:32:25;95341.73;;;12.72;52.74
48156;BME280;35568;48.104;11.782;2023-05-07T01:34:54;95342.27;;;13.17;52.50
48156;BME280;35568;48.104;11.782;2023-05-07T01:37:22;95338.51;;;13.09;52.15
48156;BME280;35568;48.104;11.782;2023-05-07T01:39:50;95336.20;;;13.36;52.14
48156;BME280;35568;48.104;11.782;2023-05-07T01:42:17;95333.31;;;12.84;52.40
48156;BME280;35568;48.104;11.782;2023-05-07T01:44:44;95328.22;;;12.96;52.20
48156;BME280;35568;48.104;11.782;2023-05-07T01:47:11;95330.09;;;13.20;52.20
48156;BME280;35568;48.104;11.782;2023-05-07T01:49:39;95331.07;;;13.14;51.91
48156;BME280;35568;48.104;11.782;2023-05-07T01:52:07;95331.18;;;13.19;51.68
48156;BME280;35568;48.104;11.782;2023-05-07T01:54:34;95331.36;;;13.41;51.82
48156;BME280;35568;48.104;11.782;2023-05-07T01:57:01;95329.94;;;13.31;52.02
48156;BME280;35568;48.104;11.782;2023-05-07T01:59:28;95326.79;;;13.04;52.07
48156;BME280;35568;48.104;11.782;2023-05-07T02:01:55;95327.52;;;13.11;52.02
48156;BME280;35568;48.104;11.782;2023-05-07T02:04:22;95327.79;;;13.16;51.81
48156;BME280;35568;48.104;11.782;2023-05-07T02:06:49;95327.49;;;13.06;52.02
48156;BME280;35568;48.104;11.782;2023-05-07T02:09:16;95329.99;;;12.98;52.39
48156;BME280;35568;48.104;11.782;2023-05-07T02:11:43;95325.99;;;13.14;52.11
48156;BME280;35568;48.104;11.782;2023-05-07T02:14:10;95329.89;;;12.95;51.91
48156;BME280;35568;48.104;11.782;2023-05-07T02:16:36;95332.43;;;12.52;52.61
48156;BME280;35568;48.104;11.782;2023-05-07T02:19:03;95330.82;;;12.62;52.94
48156;BME280;35568;48.104;11.782;2023-05-07T02:21:30;95332.63;;;12.59;52.77
48156;BME280;35568;48.104;11.782;2023-05-07T02:23:57;95332.56;;;12.52;52.74
48156;BME280;35568;48.104;11.782;2023-05-07T02:26:24;95333.84;;;12.48;52.75
48156;BME280;35568;48.104;11.782;2023-05-07T02:28:50;95337.71;;;12.37;53.02
48156;BME280;35568;48.104;11.782;2023-05-07T02:31:17;95337.12;;;12.32;53.01
48156;BME280;35568;48.104;11.782;2023-05-07T02:33:44;95332.37;;;12.28;53.30
48156;BME280;35568;48.104;11.782;2023-05-07T02:36:12;95333.23;;;12.29;52.99
48156;BME280;35568;48.104;11.782;2023-05-07T02:38:39;95334.12;;;12.69;53.09
48156;BME280;35568;48.104;11.782;2023-05-07T02:41:05;95333.88;;;12.32;52.89
48156;BME280;35568;48.104;11.782;2023-05-07T02:43:32;95334.84;;;12.17;53.04
48156;BME280;35568;48.104;11.782;2023-05-07T02:46:01;95335.82;;;12.01;53.69
48156;BME280;35568;48.104;11.782;2023-05-07T02:48:29;95333.47;;;12.06;53.36
48156;BME280;35568;48.104;11.782;2023-05-07T02:50:55;95329.37;;;11.95;53.55
48156;BME280;35568;48.104;11.782;2023-05-07T02:53:22;95329.79;;;12.08;53.17
48156;BME280;35568;48.104;11.782;2023-05-07T02:55:49;95330.84;;;12.04;53.27
48156;BME280;35568;48.104;11.782;2023-05-07T02:58:16;95330.07;;;12.09;52.93
48156;BME280;35568;48.104;11.782;2023-05-07T03:03:00;95330.98;;;12.56;53.34
48156;BME280;35568;48.104;11.782;2023-05-07T03:05:27;95328.94;;;11.94;53.61
48156;BME280;35568;48.104;11.782;2023-05-07T03:07:53;95325.73;;;11.80;53.81
48156;BME280;35568;48.104;11.782;2023-05-07T03:10:20;95327.01;;;11.93;53.29
48156;BME280;35568;48.104;11.782;2023-05-07T03:12:47;95325.06;;;12.28;53.26
48156;BME280;35568;48.104;11.782;2023-05-07T03:15:14;95325.66;;;12.04;53.06
48156;BME280;35568;48.104;11.782;2023-05-07T03:17:40;95325.81;;;12.18;52.90
48156;BME280;35568;48.104;11.782;2023-05-07T03:20:08;95328.33;;;12.70;52.56
48156;BME280;35568;48.104;11.782;2023-05-07T03:22:35;95328.85;;;12.46;52.87
48156;BME280;35568;48.104;11.782;2023-05-07T03:25:02;95329.40;;;11.82;53.32
48156;BME280;35568;48.104;11.782;2023-05-07T03:27:29;95331.26;;;12.09;53.09
48156;BME280;35568;48.104;11.782;2023-05-07T03:29:55;95328.64;;;11.82;53.25
48156;BME280;35568;48.104;11.782;2023-05-07T03:32:22;95327.91;;;12.21;53.25
48156;BME280;35568;48.104;11.782;2023-05-07T03:34:49;95325.69;;;12.37;52.89
48156;BME280;35568;48.104;11.782;2023-05-07T03:37:16;95321.04;;;12.68;52.55
48156;BME280;35568;48.104;11.782;2023-05-07T03:39:43;95317.12;;;12.48;52.58
48156;BME280;35568;48.104;11.782;2023-05-07T03:42:10;95312.82;;;12.29;52.34
48156;BME280;35568;48.104;11.782;2023-05-07T03:44:36;95313.14;;;12.31;52.20
48156;BME280;35568;48.104;11.782;2023-05-07T03:47:04;95314.11;;;12.29;52.19
48156;BME280;35568;48.104;11.782;2023-05-07T03:49:31;95319.19;;;12.18;52.22
48156;BME280;35568;48.104;11.782;2023-05-07T03:51:58;95319.87;;;12.24;52.42
48156;BME280;35568;48.104;11.782;2023-05-07T03:54:25;95318.73;;;12.29;52.27
48156;BME280;35568;48.104;11.782;2023-05-07T03:56:52;95321.95;;;12.05;52.52
48156;BME280;35568;48.104;11.782;2023-05-07T03:59:19;95323.82;;;11.93;52.73
48156;BME280;35568;48.104;11.782;2023-05-07T04:01:45;95325.92;;;11.78;52.86
48156;BME280;35568;48.104;11.782;2023-05-07T04:04:12;95325.22;;;11.82;52.56
48156;BME280;35568;48.104;11.782;2023-05-07T04:06:39;95321.67;;;11.98;52.72
48156;BME280;35568;48.104;11.782;2023-05-07T04:09:06;95320.57;;;11.95;52.78
48156;BME280;35568;48.104;11.782;2023-05-07T04:11:33;95325.32;;;11.85;52.80
48156;BME280;35568;48.104;11.782;2023-05-07T04:14:00;95332.41;;;11.73;53.19
48156;BME280;35568;48.104;11.782;2023-05-07T04:16:26;95336.85;;;11.89;53.32
48156;BME280;35568;48.104;11.782;2023-05-07T04:18:53;95337.40;;;11.65;53.30
48156;BME280;35568;48.104;11.782;2023-05-07T04:21:21;95334.34;;;12.03;53.27
48156;BME280;35568;48.104;11.782;2023-05-07T04:23:48;95336.23;;;12.17;52.91
48156;BME280;35568;48.104;11.782;2023-05-07T04:26:16;95339.01;;;11.88;52.54
48156;BME280;35568;48.104;11.782;2023-05-07T04:28:42;95343.42;;;12.36;52.42
48156;BME280;35568;48.104;11.782;2023-05-07T04:31:10;95343.47;;;12.15;52.49
48156;BME280;35568;48.104;11.782;2023-05-07T04:33:37;95345.51;;;11.72;52.97
48156;BME280;35568;48.104;11.782;2023-05-07T04:36:04;95349.64;;;11.79;52.89
48156;BME280;35568;48.104;11.782;2023-05-07T04:38:31;95354.17;;;11.85;52.71
48156;BME280;35568;48.104;11.782;2023-05-07T04:41:02;95355.78;;;12.01;53.24
48156;BME280;35568;48.104;11.782;2023-05-07T04:43:29;95355.49;;;11.90;52.91
48156;BME280;35568;48.104;11.782;2023-05-07T04:45:56;95356.66;;;12.25;52.57
48156;BME280;35568;48.104;11.782;2023-05-07T04:52:07;95357.64;;;13.08;52.46
48156;BME280;35568;48.104;11.782;2023-05-07T04:54:34;95357.92;;;12.55;52.08
48156;BME280;35568;48.104;11.782;2023-05-07T04:57:03;95356.77;;;12.65;51.98
48156;BME280;35568;48.104;11.782;2023-05-07T04:59:30;95358.75;;;12.66;51.83
48156;BME280;35568;48.104;11.782;2023-05-07T05:01:57;95361.28;;;13.07;51.64
48156;BME280;35568;48.104;11.782;2023-05-07T05:04:24;95364.17;;;12.96;51.48
48156;BME280;35568;48.104;11.782;2023-05-07T05:06:51;95367.23;;;13.31;51.34
48156;BME280;35568;48.104;11.782;2023-05-07T05:09:17;95367.84;;;13.14;51.30
48156;BME280;35568;48.104;11.782;2023-05-07T05:11:45;95367.45;;;13.46;51.12
48156;BME280;35568;48.104;11.782;2023-05-07T05:14:12;95368.91;;;13.31;51.18
48156;BME280;35568;48.104;11.782;2023-05-07T05:16:38;95375.23;;;13.25;51.35
48156;BME280;35568;48.104;11.782;2023-05-07T05:19:05;95374.45;;;12.96;51.56
48156;BME280;35568;48.104;11.782;2023-05-07T05:21:32;95370.51;;;13.49;51.58
48156;BME280;35568;48.104;11.782;2023-05-07T05:23:59;95369.91;;;13.68;51.41
48156;BME280;35568;48.104;11.782;2023-05-07T05:26:26;95369.91;;;13.61;51.33
48156;BME280;35568;48.104;11.782;2023-05-07T05:28:53;95365.43;;;13.97;51.12
48156;BME280;35568;48.104;11.782;2023-05-07T05:31:20;95364.67;;;13.94;51.00
48156;BME280;35568;48.104;11.782;2023-05-07T05:33:46;95363.40;;;14.24;50.82
48156;BME280;35568;48.104;11.782;2023-05-07T05:36:13;95365.14;;;14.31;50.54
48156;BME280;35568;48.104;11.782;2023-05-07T05:38:40;95363.03;;;14.57;50.46
48156;BME280;35568;48.104;11.782;2023-05-07T05:41:07;95365.95;;;14.50;50.13
48156;BME280;35568;48.104;11.782;2023-05-07T05:43:34;95370.00;;;14.79;49.96
48156;BME280;35568;48.104;11.782;2023-05-07T05:46:02;95371.17;;;14.87;49.82
48156;BME280;35568;48.104;11.782;2023-05-07T05:48:29;95368.31;;;15.23;49.41
48156;BME280;35568;48.104;11.782;2023-05-07T05:50:56;95366.03;;;15.28;49.26
48156;BME280;35568;48.104;11.782;2023-05-07T05:53:24;95366.93;;;16.20;48.20
48156;BME280;35568;48.104;11.782;2023-05-07T05:55:50;95366.64;;;16.01;47.91
48156;BME280;35568;48.104;11.782;2023-05-07T05:58:17;95364.95;;;16.30;47.76
48156;BME280;35568;48.104;11.782;2023-05-07T06:00:44;95364.52;;;16.23;47.85
48156;BME280;35568;48.104;11.782;2023-05-07T06:03:11;95363.70;;;16.72;47.49
48156;BME280;35568;48.104;11.782;2023-05-07T06:05:39;95363.50;;;16.78;47.07
48156;BME280;35568;48.104;11.782;2023-05-07T06:08:06;95360.57;;;17.17;46.74
48156;BME280;35568;48.104;11.782;2023-05-07T06:10:33;95359.27;;;17.00;46.50
48156;BME280;35568;48.104;11.782;2023-05-07T06:13:00;95359.69;;;17.52;46.12
48156;BME280;35568;48.104;11.782;2023-05-07T06:15:27;95361.08;;;17.11;46.22
48156;BME280;35568;48.104;11.782;2023-05-07T06:17:54;95358.94;;;17.05;46.47
48156;BME280;35568;48.104;11.782;2023-05-07T06:20:21;95359.09;;;17.34;46.21
48156;BME280;35568;48.104;11.782;2023-05-07T06:22:48;95358.86;;;17.17;46.03
48156;BME280;35568;48.104;11.782;2023-05-07T06:25:15;95358.56;;;17.85;45.36
48156;BME280;35568;48.104;11.782;2023-05-07T06:27:42;95359.67;;;17.73;45.60
48156;BME280;35568;48.104;11.782;2023-05-07T06:30:09;95358.48;;;18.47;45.06
48156;BME280;35568;48.104;11.782;2023-05-07T06:32:37;95357.58;;;18.47;44.70
48156;BME280;35568;48.104;11.782;2023-05-07T06:35:04;95361.87;;;18.92;44.48
48156;BME280;35568;48.104;11.782;2023-05-07T06:37:31;95361.88;;;18.58;44.09
48156;BME280;35568;48.104;11.782;2023-05-07T06:39:58;95362.97;;;18.57;43.73
48156;BME280;35568;48.104;11.782;2023-05-07T06:42:24;95367.13;;;18.53;44.33
48156;BME280;35568;48.104;11.782;2023-05-07T06:44:52;95373.39;;;19.27;43.60
48156;BME280;35568;48.104;11.782;2023-05-07T06:47:19;95376.42;;;19.53;42.63
48156;BME280;35568;48.104;11.782;2023-05-07T06:49:46;95379.86;;;19.45;42.50
48156;BME280;35568;48.104;11.782;2023-05-07T06:52:12;95379.45;;;19.59;42.21
48156;BME280;35568;48.104;11.782;2023-05-07T06:54:39;95378.08;;;19.32;41.73
48156;BME280;35568;48.104;11.782;2023-05-07T06:57:06;95377.21;;;19.56;41.19
48156;BME280;35568;48.104;11.782;2023-05-07T06:59:33;95375.26;;;19.34;41.67
48156;BME280;35568;48.104;11.782;2023-05-07T07:02:00;95373.04;;;19.68;41.59
48156;BME280;35568;48.104;11.782;2023-05-07T07:04:26;95369.31;;;20.14;40.79
48156;BME280;35568;48.104;11.782;2023-05-07T07:06:54;95375.64;;;20.06;40.42
48156;BME280;35568;48.104;11.782;2023-05-07T07:09:21;95379.83;;;20.98;39.39
48156;BME280;35568;48.104;11.782;2023-05-07T07:11:48;95383.18;;;20.67;39.20
48156;BME280;35568;48.104;11.782;2023-05-07T07:14:14;95385.02;;;20.83;39.47
48156;BME280;35568;48.104;11.782;2023-05-07T07:16:41;95385.08;;;20.57;39.18
48156;BME280;35568;48.104;11.782;2023-05-07T07:19:08;95385.77;;;21.21;39.10
48156;BME280;35568;48.104;11.782;2023-05-07T07:21:35;95385.72;;;21.25;38.49
48156;BME280;35568;48.104;11.782;2023-05-07T07:24:02;95385.07;;;21.16;38.24
48156;BME280;35568;48.104;11.782;2023-05-07T07:26:28;95386.58;;;21.50;38.22
48156;BME280;35568;48.104;11.782;2023-05-07T07:28:55;95387.97;;;21.62;37.14
48156;BME280;35568;48.104;11.782;2023-05-07T07:31:22;95383.66;;;22.31;37.33
48156;BME280;35568;48.104;11.782;2023-05-07T07:33:49;95381.49;;;22.29;36.46
48156;BME280;35568;48.104;11.782;2023-05-07T07:36:16;95379.87;;;21.96;35.98
48156;BME280;35568;48.104;11.782;2023-05-07T07:38:43;95388.48;;;21.97;35.92
48156;BME280;35568;48.104;11.782;2023-05-07T07:41:09;95388.10;;;22.04;36.40
48156;BME280;35568;48.104;11.782;2023-05-07T07:43:36;95389.50;;;21.67;36.87
48156;BME280;35568;48.104;11.782;2023-05-07T07:46:03;95384.82;;;22.23;36.64
48156;BME280;35568;48.104;11.782;2023-05-07T07:48:31;95383.27;;;22.89;35.57
48156;BME280;35568;48.104;11.782;2023-05-07T07:50:59;95386.34;;;23.08;35.56
48156;BME280;35568;48.104;11.782;2023-05-07T07:53:26;95385.66;;;22.97;35.55
48156;BME280;35568;48.104;11.782;2023-05-07T07:55:52;95384.47;;;23.07;35.22
48156;BME280;35568;48.104;11.782;2023-05-07T07:58:19;95383.96;;;23.49;34.85
48156;BME280;35568;48.104;11.782;2023-05-07T08:00:46;95383.88;;;23.58;34.44
48156;BME280;35568;48.104;11.782;2023-05-07T08:03:13;95386.53;;;23.85;34.25
48156;BME280;35568;48.104;11.782;2023-05-07T08:05:39;95388.27;;;24.30;33.11
48156;BME280;35568;48.104;11.782;2023-05-07T08:08:07;95386.29;;;24.52;33.11
48156;BME280;35568;48.104;11.782;2023-05-07T08:10:34;95386.59;;;24.32;33.50
48156;BME280;35568;48.104;11.782;2023-05-07T08:13:01;95387.71;;;24.71;33.55
48156;BME280;35568;48.104;11.782;2023-05-07T08:15:28;95381.51;;;25.35;31.69
48156;BME280;35568;48.104;11.782;2023-05-07T08:17:55;95384.14;;;25.32;30.91
48156;BME280;35568;48.104;11.782;2023-05-07T08:20:21;95377.68;;;25.55;30.93
48156;BME280;35568;48.104;11.782;2023-05-07T08:22:48;95382.55;;;25.82;30.62
48156;BME280;35568;48.104;11.782;2023-05-07T08:25:15;95384.29;;;25.94;29.85
48156;BME280;35568;48.104;11.782;2023-05-07T08:27:42;95385.56;;;26.06;30.10
48156;BME280;35568;48.104;11.782;2023-05-07T08:30:09;95385.61;;;25.90;30.34
48156;BME280;35568;48.104;11.782;2023-05-07T08:32:37;95384.64;;;26.44;29.50
48156;BME280;35568;48.104;11.782;2023-05-07T08:35:04;95387.83;;;26.43;29.71
48156;BME280;35568;48.104;11.782;2023-05-07T08:37:31;95385.30;;;25.35;29.78
48156;BME280;35568;48.104;11.782;2023-05-07T08:39:58;95386.79;;;26.37;30.04
48156;BME280;35568;48.104;11.782;2023-05-07T08:42:25;95385.37;;;27.28;28.41
48156;BME280;35568;48.104;11.782;2023-05-07T08:44:53;95383.58;;;27.12;27.67
48156;BME280;35568;48.104;11.782;2023-05-07T08:47:29;95385.13;;;27.50;27.00
48156;BME280;35568;48.104;11.782;2023-05-07T08:49:59;95387.26;;;27.39;27.25
48156;BME280;35568;48.104;11.782;2023-05-07T08:52:26;95388.33;;;27.24;28.32
48156;BME280;35568;48.104;11.782;2023-05-07T08:54:53;95392.05;;;27.04;28.15
48156;BME280;35568;48.104;11.782;2023-05-07T08:57:20;95388.66;;;27.35;27.54
48156;BME280;35568;48.104;11.782;2023-05-07T08:59:47;95389.17;;;27.55;26.97
48156;BME280;35568;48.104;11.782;2023-05-07T09:02:13;95389.31;;;27.60;26.52
48156;BME280;35568;48.104;11.782;2023-05-07T09:04:40;95389.36;;;27.99;26.15
48156;BME280;35568;48.104;11.782;2023-05-07T09:07:07;95389.97;;;28.02;25.77
48156;BME280;35568;48.104;11.782;2023-05-07T09:09:34;95387.95;;;27.92;26.14
48156;BME280;35568;48.104;11.782;2023-05-07T09:12:00;95392.15;;;27.69;26.03
48156;BME280;35568;48.104;11.782;2023-05-07T09:14:27;95393.53;;;28.20;26.25
48156;BME280;35568;48.104;11.782;2023-05-07T09:16:55;95392.34;;;28.69;25.33
48156;BME280;35568;48.104;11.782;2023-05-07T09:19:23;95394.48;;;28.80;24.55
48156;BME280;35568;48.104;11.782;2023-05-07T09:21:58;95392.02;;;28.24;24.92
48156;BME280;35568;48.104;11.782;2023-05-07T09:24:25;95388.95;;;29.10;24.48
48156;BME280;35568;48.104;11.782;2023-05-07T09:26:52;95387.25;;;28.90;24.09
48156;BME280;35568;48.104;11.782;2023-05-07T09:29:18;95382.43;;;28.80;24.21
48156;BME280;35568;48.104;11.782;2023-05-07T09:31:45;95381.48;;;28.91;24.72
48156;BME280;35568;48.104;11.782;2023-05-07T09:34:12;95380.87;;;28.94;24.37
48156;BME280;35568;48.104;11.782;2023-05-07T09:36:39;95380.80;;;28.99;25.06
48156;BME280;35568;48.104;11.782;2023-05-07T09:39:06;95379.94;;;28.95;25.43
48156;BME280;35568;48.104;11.782;2023-05-07T09:41:32;95383.19;;;29.32;25.90
48156;BME280;35568;48.104;11.782;2023-05-07T09:43:59;95379.63;;;29.53;24.76
48156;BME280;35568;48.104;11.782;2023-05-07T09:46:30;95380.56;;;29.06;25.01
48156;BME280;35568;48.104;11.782;2023-05-07T09:48:58;95379.24;;;29.26;25.17
48156;BME280;35568;48.104;11.782;2023-05-07T09:51:30;95379.69;;;29.43;24.97
48156;BME280;35568;48.104;11.782;2023-05-07T09:53:59;95375.45;;;29.51;24.91
48156;BME280;35568;48.104;11.782;2023-05-07T09:56:26;95373.52;;;29.25;25.54
48156;BME280;35568;48.104;11.782;2023-05-07T09:58:57;95368.84;;;29.61;24.67
48156;BME280;35568;48.104;11.782;2023-05-07T10:01:25;95376.55;;;29.34;25.17
48156;BME280;35568;48.104;11.782;2023-05-07T10:03:53;95377.53;;;29.15;24.93
48156;BME280;35568;48.104;11.782;2023-05-07T10:06:20;95375.09;;;28.50;25.43
48156;BME280;35568;48.104;11.782;2023-05-07T10:08:48;95371.30;;;28.24;25.84
48156;BME280;35568;48.104;11.782;2023-05-07T10:11:15;95372.41;;;28.16;25.44
48156;BME280;35568;48.104;11.782;2023-05-07T10:13:43;95372.19;;;28.00;25.83
48156;BME280;35568;48.104;11.782;2023-05-07T10:16:10;95373.02;;;28.45;25.74
48156;BME280;35568;48.104;11.782;2023-05-07T10:18:38;95370.88;;;28.70;24.23
48156;BME280;35568;48.104;11.782;2023-05-07T10:21:10;95373.29;;;29.27;24.31
48156;BME280;35568;48.104;11.782;2023-05-07T10:23:38;95371.38;;;29.34;25.00
48156;BME280;35568;48.104;11.782;2023-05-07T10:26:08;95367.74;;;29.77;23.30
48156;BME280;35568;48.104;11.782;2023-05-07T10:28:38;95368.33;;;29.53;23.66
48156;BME280;35568;48.104;11.782;2023-05-07T10:31:18;95371.03;;;28.62;24.81
48156;BME280;35568;48.104;11.782;2023-05-07T10:33:51;95374.23;;;28.12;24.36
48156;BME280;35568;48.104;11.782;2023-05-07T10:36:20;95372.48;;;28.09;24.69
48156;BME280;35568;48.104;11.782;2023-05-07T10:38:48;95371.99;;;27.74;24.86
48156;BME280;35568;48.104;11.782;2023-05-07T10:41:14;95371.22;;;28.27;24.45
48156;BME280;35568;48.104;11.782;2023-05-07T10:43:43;95371.43;;;28.36;24.39
48156;BME280;35568;48.104;11.782;2023-05-07T10:46:13;95372.96;;;28.90;24.38
48156;BME280;35568;48.104;11.782;2023-05-07T10:49:13;95371.43;;;29.35;23.99
48156;BME280;35568;48.104;11.782;2023-05-07T10:51:45;95371.03;;;28.98;23.67
48156;BME280;35568;48.104;11.782;2023-05-07T10:54:37;95371.54;;;29.07;23.72
48156;BME280;35568;48.104;11.782;2023-05-07T10:57:33;95371.44;;;28.90;24.85
48156;BME280;35568;48.104;11.782;2023-05-07T11:00:00;95372.72;;;29.19;25.02
48156;BME280;35568;48.104;11.782;2023-05-07T11:03:04;95368.48;;;28.46;25.63
48156;BME280;35568;48.104;11.782;2023-05-07T11:05:32;95372.95;;;27.95;26.69
48156;BME280;35568;48.104;11.782;2023-05-07T11:08:01;95372.79;;;28.15;26.74
48156;BME280;35568;48.104;11.782;2023-05-07T11:10:59;95374.64;;;28.10;26.43
48156;BME280;35568;48.104;11.782;2023-05-07T11:13:43;95373.48;;;28.09;26.66
48156;BME280;35568;48.104;11.782;2023-05-07T11:16:18;95376.53;;;28.07;26.60
48156;BME280;35568;48.104;11.782;2023-05-07T11:18:47;95376.78;;;28.48;26.13
48156;BME280;35568;48.104;11.782;2023-05-07T11:21:32;95374.31;;;28.42;25.74
48156;BME280;35568;48.104;11.782;2023-05-07T11:23:59;95372.12;;;28.84;25.84
48156;BME280;35568;48.104;11.782;2023-05-07T11:26:29;95365.55;;;28.26;26.07
48156;BME280;35568;48.104;11.782;2023-05-07T11:28:56;95366.54;;;28.80;25.79
48156;BME280;35568;48.104;11.782;2023-05-07T11:31:25;95365.79;;;29.32;25.35
48156;BME280;35568;48.104;11.782;2023-05-07T11:33:54;95362.61;;;29.19;24.90
48156;BME280;35568;48.104;11.782;2023-05-07T11:36:23;95362.77;;;28.69;25.20
48156;BME280;35568;48.104;11.782;2023-05-07T11:38:50;95360.75;;;28.72;25.59
48156;BME280;35568;48.104;11.782;2023-05-07T11:41:21;95359.85;;;28.54;26.12
48156;BME280;35568;48.104;11.782;2023-05-07T11:43:57;95355.12;;;28.12;26.25
48156;BME280;35568;48.104;11.782;2023-05-07T11:46:24;95354.01;;;28.17;26.01
48156;BME280;35568;48.104;11.782;2023-05-07T11:48:50;95356.27;;;28.51;26.64
48156;BME280;35568;48.104;11.782;2023-05-07T11:51:20;95358.69;;;28.95;25.13
48156;BME280;35568;48.104;11.782;2023-05-07T11:53:46;95355.01;;;29.29;25.44
48156;BME280;35568;48.104;11.782;2023-05-07T11:56:15;95355.94;;;29.32;25.55
48156;BME280;35568;48.104;11.782;2023-05-07T11:58:44;95359.37;;;29.24;25.30
48156;BME280;35568;48.104;11.782;2023-05-07T12:01:12;95353.65;;;29.27;24.70
48156;BME280;35568;48.104;11.782;2023-05-07T12:03:41;95352.64;;;29.17;25.16
48156;BME280;35568;48.104;11.782;2023-05-07T12:06:08;95355.64;;;29.37;25.37
48156;BME280;35568;48.104;11.782;2023-05-07T12:08:37;95355.05;;;29.83;24.66
48156;BME280;35568;48.104;11.782;2023-05-07T12:11:07;95355.65;;;29.85;24.87
48156;BME280;35568;48.104;11.782;2023-05-07T12:13:35;95357.77;;;30.18;24.47
48156;BME280;35568;48.104;11.782;2023-05-07T12:16:05;95356.06;;;30.01;24.59
48156;BME280;35568;48.104;11.782;2023-05-07T12:18:33;95355.01;;;29.89;24.70
48156;BME280;35568;48.104;11.782;2023-05-07T12:21:01;95355.88;;;29.74;24.20
48156;BME280;35568;48.104;11.782;2023-05-07T12:23:29;95350.31;;;29.75;24.60
48156;BME280;35568;48.104;11.782;2023-05-07T12:25:56;95346.48;;;30.02;24.72
48156;BME280;35568;48.104;11.782;2023-05-07T12:28:22;95348.71;;;30.26;24.11
48156;BME280;35568;48.104;11.782;2023-05-07T12:30:50;95348.14;;;30.35;24.28
48156;BME280;35568;48.104;11.782;2023-05-07T12:33:23;95341.92;;;30.39;23.85
48156;BME280;35568;48.104;11.782;2023-05-07T12:35:51;95341.15;;;30.72;23.30
48156;BME280;35568;48.104;11.782;2023-05-07T12:38:19;95334.82;;;31.23;22.98
48156;BME280;35568;48.104;11.782;2023-05-07T12:40:48;95336.07;;;31.49;23.14
48156;BME280;35568;48.104;11.782;2023-05-07T12:43:16;95334.12;;;31.26;22.78
48156;BME280;35568;48.104;11.782;2023-05-07T12:45:44;95325.70;;;30.63;23.67
48156;BME280;35568;48.104;11.782;2023-05-07T12:48:11;95327.31;;;30.28;23.60
48156;BME280;35568;48.104;11.782;2023-05-07T12:50:37;95323.49;;;29.83;23.98
48156;BME280;35568;48.104;11.782;2023-05-07T12:53:04;95321.73;;;29.64;23.85
48156;BME280;35568;48.104;11.782;2023-05-07T12:55:32;95318.91;;;29.74;24.22
48156;BME280;35568;48.104;11.782;2023-05-07T12:58:06;95316.24;;;29.55;23.99
48156;BME280;35568;48.104;11.782;2023-05-07T13:00:34;95316.27;;;28.96;24.08